ハバロフスク の空港の天気 - METARとTAF

ハバロフスク空港 ( UHHH / KHV ) - ロシア ハバロフスク
飛行場実況気象(Metar)
観測時間09/23 20:30 VLAT (09/23 10:30 UTC)
風向・風速南南東 1m/s
視程10km以上
天気現象
少しの雲 雲底高度 910m
気温12℃
湿度94%
気圧1011hPa
METARUHHH 231030Z 15001MPS 9999 FEW030 12/11 Q1011 R23L/090060 NOSIG RMK QFE751/1002
過去の天気等 Google飛行場航空写真 Wunderground天気予報

過去48時間のMETAR

飛行場予報(TAF)
発表時間: 9/23 17:48 VLAT (9/23 07:48 UTC)
予報対象時間: 23日19時 VLAT ~ 25日1時 VLAT
風向・風速西南西 7m/s
視程10km以上
全天の4割程度の積乱雲 雲底高度 610m
23日19時 VLAT ~ 23日22時 VLAT に一時的に
視程3,000m
天気現象弱いしゅう雨
全天の4割程度の雲 雲底高度 210m
全天の8割程度の積乱雲 雲底高度 610m
24日1時 VLAT から
風向・風速南西 3m/s
視程10km以上
全天の4割程度の雲 雲底高度 180m
全天の4割程度の積乱雲 雲底高度 610m
24日16時 VLAT ~ 24日22時 VLAT に一時的に
風向・風速不定 7m/s 瞬間風速 12m/s
視程3,000m
天気現象弱い雷雨
全天の4割程度の雲 雲底高度 210m
全天の8割程度の積乱雲 雲底高度 610m
TAF UHHH 230748Z 2309/2415 25007MPS 9999 SCT020CB
TEMPO 2309/2312 3000 -SHRA SCT007 BKN020CB
FM231500 22003MPS 9999 SCT006 SCT020CB
TEMPO 2406/2412 VRB07G12MPS 3000 -TSRA SCT007 BKN020CB